createdAt,value
2018-10-09T00:02:47.130Z,19
2018-10-09T00:07:49.574Z,17
2018-10-09T00:12:52.297Z,19
2018-10-09T00:17:54.437Z,18
2018-10-09T00:22:56.886Z,19
2018-10-09T00:27:59.365Z,19
2018-10-09T00:33:01.762Z,18
2018-10-09T00:38:04.241Z,19
2018-10-09T00:43:06.640Z,18
2018-10-09T00:48:09.092Z,18
2018-10-09T00:53:11.534Z,17
2018-10-09T00:58:13.964Z,17
2018-10-09T01:03:16.404Z,16
2018-10-09T01:08:18.888Z,15
2018-10-09T01:13:21.282Z,15
2018-10-09T01:18:23.738Z,16
2018-10-09T01:23:26.158Z,17
2018-10-09T01:28:28.601Z,15
2018-10-09T01:33:31.045Z,18
2018-10-09T01:38:33.483Z,16
2018-10-09T01:43:35.915Z,18
2018-10-09T01:48:38.363Z,16
2018-10-09T01:53:40.811Z,16
2018-10-09T01:58:43.246Z,19
2018-10-09T02:03:45.681Z,17
2018-10-09T02:08:48.142Z,19
2018-10-09T02:13:50.568Z,17
2018-10-09T02:18:53.012Z,27
2018-10-09T02:23:55.474Z,16
2018-10-09T02:28:57.882Z,15
2018-10-09T02:34:00.409Z,17
2018-10-09T02:39:02.769Z,16
2018-10-09T02:44:05.198Z,18
2018-10-09T02:49:07.641Z,15
2018-10-09T02:54:10.090Z,16
2018-10-09T02:59:12.529Z,17
2018-10-09T03:04:14.976Z,19
2018-10-09T03:09:17.437Z,16
2018-10-09T03:14:19.848Z,17
2018-10-09T03:19:22.283Z,15
2018-10-09T03:24:24.730Z,14
2018-10-09T03:29:27.168Z,17
2018-10-09T03:34:29.664Z,16
2018-10-09T03:39:32.075Z,15
2018-10-09T03:44:34.520Z,14
2018-10-09T03:49:36.963Z,14
2018-10-09T03:54:39.396Z,16
2018-10-09T03:59:41.844Z,15
2018-10-09T04:04:44.316Z,17
2018-10-09T04:09:51.733Z,15
2018-10-09T04:14:49.172Z,15
2018-10-09T04:19:51.687Z,14
2018-10-09T04:24:54.059Z,22
2018-10-09T04:29:56.507Z,16
2018-10-09T04:34:58.942Z,18
2018-10-09T04:40:06.643Z,18
2018-10-09T04:45:03.796Z,17
2018-10-09T04:50:06.251Z,16
2018-10-09T04:55:08.680Z,16
2018-10-09T05:00:11.133Z,16
2018-10-09T05:05:13.574Z,16
2018-10-09T05:10:16.021Z,15
2018-10-09T05:15:18.443Z,17
2018-10-09T05:20:20.877Z,14
2018-10-09T05:25:23.332Z,13
2018-10-09T05:30:25.757Z,13
2018-10-09T05:35:28.215Z,14
2018-10-09T05:40:30.673Z,15
2018-10-09T05:45:33.086Z,16
2018-10-09T05:50:35.526Z,17
2018-10-09T05:55:37.990Z,20
2018-10-09T06:00:40.393Z,16
2018-10-09T06:05:42.837Z,18
2018-10-09T06:10:45.285Z,18
2018-10-09T06:15:47.758Z,18
2018-10-09T06:20:50.156Z,19
2018-10-09T06:25:52.588Z,20
2018-10-09T06:30:55.040Z,19
2018-10-09T06:35:57.507Z,21
2018-10-09T06:40:59.949Z,34
2018-10-09T06:46:02.372Z,32
2018-10-09T06:51:04.821Z,28
2018-10-09T06:56:07.252Z,24
2018-10-09T07:01:09.704Z,28
2018-10-09T07:06:12.192Z,26
2018-10-09T07:11:14.720Z,24
2018-10-09T07:16:17.091Z,24
2018-10-09T07:21:19.448Z,25
2018-10-09T07:26:21.917Z,26
2018-10-09T07:31:24.328Z,26
2018-10-09T07:36:26.760Z,27
2018-10-09T07:41:29.235Z,26
2018-10-09T07:46:31.652Z,26
2018-10-09T07:51:34.100Z,26
2018-10-09T07:56:36.595Z,24
2018-10-09T08:01:38.974Z,21
2018-10-09T08:06:41.398Z,22
2018-10-09T08:11:43.849Z,20
2018-10-09T08:16:46.306Z,20
2018-10-09T08:21:48.730Z,19
2018-10-09T08:26:51.192Z,21
2018-10-09T08:31:53.703Z,20
2018-10-09T08:36:56.074Z,19
2018-10-09T08:41:58.493Z,18
2018-10-09T08:47:00.933Z,18
2018-10-09T08:52:03.444Z,16
2018-10-09T08:57:05.829Z,14
2018-10-09T09:02:08.257Z,16
2018-10-09T09:07:10.704Z,15
2018-10-09T09:12:13.177Z,15
2018-10-09T09:17:15.593Z,14
2018-10-09T09:22:18.023Z,14
2018-10-09T09:27:20.474Z,14
2018-10-09T09:32:22.988Z,11
2018-10-09T09:37:25.342Z,11
2018-10-09T09:42:27.804Z,12
2018-10-09T09:47:30.244Z,12
2018-10-09T09:52:32.657Z,11
2018-10-09T09:57:35.128Z,12
2018-10-09T10:02:37.531Z,10
2018-10-09T10:07:39.991Z,10
2018-10-09T10:12:42.438Z,10
2018-10-09T10:17:44.876Z,10
2018-10-09T10:22:47.307Z,9
2018-10-09T10:27:49.752Z,9
2018-10-09T10:32:52.207Z,8
2018-10-09T10:37:54.618Z,8
2018-10-09T10:42:57.093Z,8
2018-10-09T10:47:59.556Z,8
2018-10-09T10:53:01.969Z,8
2018-10-09T10:58:04.397Z,10
2018-10-09T11:03:06.848Z,11
2018-10-09T11:08:09.305Z,9
2018-10-09T11:13:11.711Z,10
2018-10-09T11:18:14.158Z,10
2018-10-09T11:23:16.613Z,9
2018-10-09T11:28:19.032Z,10
2018-10-09T11:33:21.492Z,9
2018-10-09T11:38:23.909Z,8
2018-10-09T11:43:26.373Z,9
2018-10-09T11:48:28.809Z,9
2018-10-09T11:53:31.248Z,8
2018-10-09T11:58:33.736Z,7
2018-10-09T12:03:36.129Z,7
2018-10-09T12:08:38.558Z,7
2018-10-09T12:13:41.017Z,7
2018-10-09T12:18:43.468Z,7
2018-10-09T12:23:45.895Z,6
2018-10-09T12:28:48.335Z,7
2018-10-09T12:33:50.778Z,6
2018-10-09T12:38:53.220Z,6
2018-10-09T12:43:55.731Z,5
2018-10-09T12:48:58.193Z,8
2018-10-09T12:54:00.574Z,6
2018-10-09T12:59:03.063Z,5
2018-10-09T13:04:05.440Z,5
2018-10-09T13:09:07.895Z,5
2018-10-09T13:14:10.322Z,5
2018-10-09T13:19:12.887Z,8
2018-10-09T13:24:15.213Z,4
2018-10-09T13:29:17.711Z,4
2018-10-09T13:34:20.169Z,6
2018-10-09T13:39:22.548Z,5
2018-10-09T13:44:25.003Z,4
2018-10-09T13:49:27.417Z,6
2018-10-09T13:54:29.856Z,7
2018-10-09T13:59:32.311Z,4
2018-10-09T14:04:34.750Z,15
2018-10-09T14:09:37.228Z,7
2018-10-09T14:14:39.658Z,5
2018-10-09T14:19:42.080Z,6
2018-10-09T14:24:44.527Z,5
2018-10-09T14:29:46.994Z,5
2018-10-09T14:34:49.431Z,5
2018-10-09T14:39:51.976Z,5
2018-10-09T14:44:54.300Z,7
2018-10-09T14:49:56.752Z,12
2018-10-09T14:54:59.209Z,9
2018-10-09T15:00:06.913Z,8
2018-10-09T15:05:04.057Z,6
2018-10-09T15:10:06.499Z,6
2018-10-09T15:15:08.994Z,5
2018-10-09T15:20:11.391Z,6
2018-10-09T15:25:13.827Z,7
2018-10-09T15:30:16.271Z,8
2018-10-09T15:35:18.754Z,9
2018-10-09T15:40:21.172Z,8
2018-10-09T15:45:23.648Z,8
2018-10-09T15:50:26.040Z,8
2018-10-09T15:55:28.471Z,9
2018-10-09T16:00:30.915Z,10
2018-10-09T16:05:33.365Z,9
2018-10-09T16:10:35.958Z,9
2018-10-09T16:15:38.251Z,10
2018-10-09T16:20:40.817Z,10
2018-10-09T16:25:43.128Z,11
2018-10-09T16:30:45.582Z,11
2018-10-09T16:35:47.995Z,11
2018-10-09T16:40:50.426Z,12
2018-10-09T16:45:52.878Z,11
2018-10-09T16:50:55.331Z,12
2018-10-09T17:06:02.648Z,13
2018-10-09T17:11:05.072Z,12
2018-10-09T17:16:07.545Z,13
2018-10-09T17:21:09.965Z,14
2018-10-09T17:26:12.397Z,12
2018-10-09T17:36:17.290Z,12
2018-10-09T17:41:19.749Z,11
2018-10-09T17:51:24.603Z,14
2018-10-09T17:56:27.048Z,15
2018-10-09T18:01:29.532Z,16
2018-10-09T18:06:31.982Z,15
2018-10-09T18:11:34.361Z,15
2018-10-09T18:16:36.815Z,16
2018-10-09T18:21:39.238Z,16
2018-10-09T18:26:41.689Z,17
2018-10-09T18:36:46.563Z,18
2018-10-09T18:41:49.081Z,19
2018-10-09T18:46:51.510Z,19
2018-10-09T18:51:53.891Z,19
2018-10-09T18:56:56.324Z,20
2018-10-09T19:01:58.762Z,21
2018-10-09T19:07:01.200Z,22
2018-10-09T19:12:03.659Z,22
2018-10-09T19:17:06.075Z,19
2018-10-09T19:22:08.534Z,20
2018-10-09T19:32:13.460Z,20
2018-10-09T19:37:15.851Z,19
2018-10-09T19:42:18.331Z,22
2018-10-09T19:47:20.727Z,20
2018-10-09T19:52:23.166Z,20
2018-10-09T19:57:25.624Z,20
2018-10-09T20:02:28.048Z,18
2018-10-09T20:07:30.497Z,19
2018-10-09T20:12:32.918Z,19
2018-10-09T20:17:35.381Z,21
2018-10-09T20:22:37.806Z,18
2018-10-09T20:27:40.253Z,22
2018-10-09T20:32:42.720Z,21
2018-10-09T20:37:45.149Z,25
2018-10-09T20:42:47.860Z,28
2018-10-09T20:47:50.020Z,24
2018-10-09T20:52:52.472Z,27
2018-10-09T20:57:54.897Z,29
2018-10-09T21:02:57.341Z,29
2018-10-09T21:07:59.779Z,29
2018-10-09T21:13:02.254Z,29
2018-10-09T21:18:04.757Z,29
2018-10-09T21:23:07.122Z,27
2018-10-09T21:28:09.826Z,24
2018-10-09T21:33:12.025Z,23
2018-10-09T21:38:14.466Z,26
2018-10-09T21:43:16.864Z,26
2018-10-09T21:48:19.302Z,28
2018-10-09T21:53:21.746Z,29
2018-10-09T21:58:24.212Z,27
2018-10-09T22:03:26.626Z,28
2018-10-09T22:08:29.336Z,25
2018-10-09T22:13:31.505Z,28
2018-10-09T22:18:33.937Z,29
2018-10-09T22:23:36.379Z,28
2018-10-09T22:28:38.816Z,26
2018-10-09T22:33:41.264Z,25
2018-10-09T22:38:43.703Z,23
2018-10-09T22:43:46.177Z,31
2018-10-09T22:48:48.587Z,32
2018-10-09T22:53:51.018Z,32
2018-10-09T22:58:53.459Z,33
2018-10-09T23:03:55.898Z,27
2018-10-09T23:08:58.348Z,26
2018-10-09T23:14:00.780Z,26
2018-10-09T23:19:03.334Z,26
2018-10-09T23:24:05.667Z,27
2018-10-09T23:29:08.098Z,26
2018-10-09T23:34:10.546Z,28
2018-10-09T23:39:12.984Z,26
2018-10-09T23:44:15.433Z,28
2018-10-09T23:49:17.861Z,26
2018-10-09T23:54:20.305Z,28
2018-10-09T23:59:22.738Z,30
